createdAt,value
2022-11-27T00:01:19.558Z,4.66
2022-11-27T00:03:53.588Z,4.68
2022-11-27T00:06:25.311Z,4.64
2022-11-27T00:08:52.124Z,4.55
2022-11-27T00:11:23.706Z,4.47
2022-11-27T00:13:51.333Z,4.53
2022-11-27T00:16:18.914Z,4.57
2022-11-27T00:18:45.790Z,4.68
2022-11-27T00:21:14.730Z,4.78
2022-11-27T00:23:41.866Z,4.70
2022-11-27T00:26:09.322Z,4.68
2022-11-27T00:28:37.898Z,4.72
2022-11-27T00:31:13.167Z,4.74
2022-11-27T00:33:39.745Z,4.69
2022-11-27T00:36:14.498Z,4.63
2022-11-27T00:38:42.173Z,4.49
2022-11-27T00:41:11.163Z,4.46
2022-11-27T00:43:45.622Z,4.38
2022-11-27T00:46:23.892Z,4.38
2022-11-27T00:48:53.389Z,4.36
2022-11-27T00:51:21.987Z,4.38
2022-11-27T00:53:48.594Z,4.43
2022-11-27T00:56:18.241Z,4.42
2022-11-27T00:58:44.803Z,4.37
2022-11-27T01:01:18.342Z,4.16
2022-11-27T01:03:45.398Z,4.15
2022-11-27T01:06:12.666Z,4.17
2022-11-27T01:08:39.946Z,4.22
2022-11-27T01:11:19.094Z,4.14
2022-11-27T01:13:46.949Z,4.14
2022-11-27T01:16:26.251Z,4.14
2022-11-27T01:18:58.059Z,4.13
2022-11-27T01:21:26.704Z,4.06
2022-11-27T01:24:03.094Z,3.99
2022-11-27T01:26:31.751Z,3.90
2022-11-27T01:29:01.588Z,3.83
2022-11-27T01:31:31.790Z,3.77
2022-11-27T01:34:01.301Z,3.81
2022-11-27T01:36:28.902Z,3.79
2022-11-27T01:38:58.838Z,3.85
2022-11-27T01:41:28.304Z,3.89
2022-11-27T01:44:25.878Z,3.96
2022-11-27T01:47:26.679Z,3.89
2022-11-27T01:49:59.758Z,3.99
2022-11-27T01:52:29.893Z,4.13
2022-11-27T01:55:04.366Z,4.16
2022-11-27T01:57:38.837Z,4.13
2022-11-27T02:00:10.049Z,3.97
2022-11-27T02:02:36.581Z,3.79
2022-11-27T02:05:08.378Z,3.76
2022-11-27T02:07:35.135Z,3.81
2022-11-27T02:10:02.465Z,3.92
2022-11-27T02:12:50.630Z,3.78
2022-11-27T02:15:33.809Z,3.79
2022-11-27T02:18:27.441Z,3.78
2022-11-27T02:21:26.224Z,3.78
2022-11-27T02:24:02.494Z,3.81
2022-11-27T02:27:02.906Z,3.48
2022-11-27T02:29:33.564Z,3.64
2022-11-27T02:32:23.392Z,3.71
2022-11-27T02:35:24.953Z,3.71
2022-11-27T02:37:59.966Z,3.72
2022-11-27T02:40:29.187Z,3.74
2022-11-27T02:42:57.757Z,3.61
2022-11-27T02:45:35.979Z,3.69
2022-11-27T02:48:04.252Z,3.72
2022-11-27T02:50:33.691Z,3.63
2022-11-27T02:53:10.403Z,3.61
2022-11-27T02:55:40.279Z,3.49
2022-11-27T02:58:10.755Z,3.40
2022-11-27T03:00:40.093Z,3.35
2022-11-27T03:03:13.101Z,3.36
2022-11-27T03:05:43.584Z,3.40
2022-11-27T03:08:28.863Z,3.39
2022-11-27T03:11:02.919Z,3.36
2022-11-27T03:13:35.918Z,3.37
2022-11-27T03:16:05.500Z,3.27
2022-11-27T03:18:51.464Z,3.17
2022-11-27T03:21:23.643Z,3.14
2022-11-27T03:23:50.363Z,3.19
2022-11-27T03:26:16.925Z,3.14
2022-11-27T03:28:48.930Z,3.11
2022-11-27T03:31:23.614Z,3.12
2022-11-27T03:33:50.980Z,3.02
2022-11-27T03:36:20.081Z,3.03
2022-11-27T03:38:49.104Z,3.15
2022-11-27T03:41:28.107Z,3.12
2022-11-27T03:44:16.297Z,3.14
2022-11-27T03:47:03.900Z,3.09
2022-11-27T03:49:51.758Z,2.93
2022-11-27T03:52:42.313Z,2.86
2022-11-27T03:55:27.117Z,2.92
2022-11-27T03:57:58.025Z,3.04
2022-11-27T04:00:24.837Z,3.06
2022-11-27T04:02:53.375Z,3.13
2022-11-27T04:05:22.949Z,3.16
2022-11-27T04:07:49.536Z,3.08
2022-11-27T04:10:16.560Z,3.13
2022-11-27T04:12:43.200Z,3.12
2022-11-27T04:15:10.230Z,2.98
2022-11-27T04:17:36.902Z,2.89
2022-11-27T04:20:06.971Z,2.90
2022-11-27T04:22:33.505Z,2.98
2022-11-27T04:25:00.061Z,2.89
2022-11-27T04:27:26.602Z,2.66
2022-11-27T04:29:53.134Z,2.65
2022-11-27T04:32:19.670Z,2.77
2022-11-27T04:34:46.248Z,2.85
2022-11-27T04:37:12.939Z,2.72
2022-11-27T04:39:39.390Z,2.73
2022-11-27T04:42:07.343Z,2.88
2022-11-27T04:44:33.943Z,2.94
2022-11-27T04:47:03.941Z,3.04
2022-11-27T04:49:33.482Z,3.03
2022-11-27T04:51:59.950Z,3.04
2022-11-27T04:54:26.542Z,3.11
2022-11-27T04:56:54.986Z,2.83
2022-11-27T04:59:22.319Z,2.78
2022-11-27T05:01:48.830Z,2.87
2022-11-27T05:04:15.443Z,2.86
2022-11-27T05:06:51.262Z,2.91
2022-11-27T05:09:18.420Z,2.82
2022-11-27T05:11:45.094Z,2.81
2022-11-27T05:14:22.607Z,2.79
2022-11-27T05:16:54.436Z,2.70
2022-11-27T05:19:22.969Z,2.67
2022-11-27T05:21:50.457Z,2.82
2022-11-27T05:24:19.027Z,2.78
2022-11-27T05:26:48.424Z,2.78
2022-11-27T05:29:15.466Z,2.72
2022-11-27T05:31:42.479Z,2.71
2022-11-27T05:34:12.796Z,2.78
2022-11-27T05:36:39.563Z,2.75
2022-11-27T05:39:10.399Z,2.84
2022-11-27T05:41:38.550Z,2.88
2022-11-27T05:44:05.368Z,2.89
2022-11-27T05:46:32.608Z,2.82
2022-11-27T05:48:59.204Z,2.87
2022-11-27T05:51:25.755Z,2.80
2022-11-27T05:53:52.231Z,2.82
2022-11-27T05:56:19.628Z,2.89
2022-11-27T05:58:52.822Z,2.91
2022-11-27T06:01:24.733Z,2.95
2022-11-27T06:03:51.122Z,3.01
2022-11-27T06:06:19.996Z,3.17
2022-11-27T06:08:50.622Z,3.34
2022-11-27T06:11:20.539Z,3.52
2022-11-27T06:13:48.736Z,3.33
2022-11-27T06:16:18.637Z,3.22
2022-11-27T06:18:53.258Z,3.27
2022-11-27T06:21:21.464Z,3.16
2022-11-27T06:23:48.441Z,3.20
2022-11-27T06:26:20.984Z,3.20
2022-11-27T06:28:51.161Z,3.07
2022-11-27T06:31:23.512Z,2.99
2022-11-27T06:33:52.493Z,3.04
2022-11-27T06:36:19.823Z,3.03
2022-11-27T06:38:46.958Z,3.05
2022-11-27T06:41:18.763Z,3.13
2022-11-27T06:43:45.470Z,3.16
2022-11-27T06:46:16.127Z,3.21
2022-11-27T06:48:44.014Z,3.25
2022-11-27T06:51:13.135Z,3.44
2022-11-27T06:53:43.826Z,3.90
2022-11-27T06:56:13.775Z,4.22
2022-11-27T06:58:41.405Z,4.46
2022-11-27T07:01:12.927Z,4.72
2022-11-27T07:03:40.312Z,4.85
2022-11-27T07:06:09.037Z,4.66
2022-11-27T07:08:36.063Z,4.43
2022-11-27T07:11:08.648Z,4.16
2022-11-27T07:13:35.457Z,3.95
2022-11-27T07:16:12.901Z,3.81
2022-11-27T07:18:45.263Z,3.84
2022-11-27T07:21:11.865Z,3.73
2022-11-27T07:23:39.517Z,3.78
2022-11-27T07:26:13.944Z,3.83
2022-11-27T07:28:44.253Z,3.79
2022-11-27T07:31:16.238Z,3.76
2022-11-27T07:33:42.866Z,3.76
2022-11-27T07:36:23.524Z,3.66
2022-11-27T07:38:51.375Z,3.69
2022-11-27T07:41:18.361Z,3.78
2022-11-27T07:43:46.244Z,4.32
2022-11-27T07:46:21.938Z,4.73
2022-11-27T07:48:48.626Z,4.96
2022-11-27T07:51:18.600Z,5.10
2022-11-27T07:53:51.086Z,5.27
2022-11-27T07:56:18.214Z,5.37
2022-11-27T07:58:44.990Z,5.53
2022-11-27T08:01:18.059Z,5.58
2022-11-27T08:03:46.298Z,5.61
2022-11-27T08:06:24.284Z,5.67
2022-11-27T08:08:52.252Z,5.77
2022-11-27T08:11:20.742Z,5.92
2022-11-27T08:13:47.633Z,5.95
2022-11-27T08:16:17.131Z,6.00
2022-11-27T08:18:43.747Z,5.79
2022-11-27T08:21:10.404Z,5.71
2022-11-27T08:23:37.306Z,5.76
2022-11-27T08:26:08.484Z,6.02
2022-11-27T08:28:35.426Z,6.20
2022-11-27T08:31:03.773Z,6.33
2022-11-27T08:33:32.686Z,6.32
2022-11-27T08:35:59.971Z,6.32
2022-11-27T08:38:26.678Z,6.31
2022-11-27T08:40:58.622Z,6.33
2022-11-27T08:43:25.362Z,6.50
2022-11-27T08:45:52.681Z,6.53
2022-11-27T08:48:20.588Z,6.46
2022-11-27T08:50:47.882Z,6.64
2022-11-27T08:53:15.229Z,6.80
2022-11-27T08:55:42.306Z,6.91
2022-11-27T08:58:09.053Z,6.88
2022-11-27T09:00:36.414Z,6.95
2022-11-27T09:03:03.253Z,6.87
2022-11-27T09:05:30.905Z,6.75
2022-11-27T09:07:58.383Z,6.83
2022-11-27T09:10:25.216Z,7.09
2022-11-27T09:12:56.292Z,7.30
2022-11-27T09:15:23.134Z,7.31
2022-11-27T09:17:50.062Z,7.49
2022-11-27T09:20:19.506Z,7.58
2022-11-27T09:22:46.039Z,7.48
2022-11-27T09:25:14.322Z,7.40
2022-11-27T09:27:40.785Z,7.31
2022-11-27T09:30:08.685Z,7.33
2022-11-27T09:32:35.185Z,7.50
2022-11-27T09:35:02.240Z,7.78
2022-11-27T09:37:29.091Z,7.96
2022-11-27T09:39:55.842Z,8.08
2022-11-27T09:42:40.007Z,8.02
2022-11-27T09:45:13.161Z,7.80
2022-11-27T09:47:41.825Z,7.72
2022-11-27T09:50:20.987Z,7.65
2022-11-27T09:52:52.817Z,7.72
2022-11-27T09:55:37.953Z,7.92
2022-11-27T09:58:16.302Z,8.09
2022-11-27T10:00:56.232Z,8.24
2022-11-27T10:03:27.657Z,8.28
2022-11-27T10:06:12.383Z,8.32
2022-11-27T10:09:15.195Z,8.32
2022-11-27T10:11:52.810Z,8.30
2022-11-27T10:14:25.256Z,8.24
2022-11-27T10:17:07.521Z,8.24
2022-11-27T10:19:58.967Z,8.44
2022-11-27T10:22:28.396Z,8.41
2022-11-27T10:25:20.853Z,8.22
2022-11-27T10:28:13.611Z,8.11
2022-11-27T10:30:58.458Z,8.04
2022-11-27T10:33:30.509Z,8.07
2022-11-27T10:35:57.386Z,8.17
2022-11-27T10:38:26.914Z,8.27
2022-11-27T10:41:09.819Z,8.37
2022-11-27T10:43:38.746Z,8.40
2022-11-27T10:46:20.199Z,8.51
2022-11-27T10:48:46.823Z,8.50
2022-11-27T10:51:27.007Z,8.50
2022-11-27T10:53:55.455Z,8.55
2022-11-27T10:56:21.885Z,8.60
2022-11-27T10:58:59.327Z,8.60
2022-11-27T11:01:29.293Z,8.64
2022-11-27T11:04:31.140Z,8.66
2022-11-27T11:06:54.099Z,8.59
2022-11-27T11:09:29.173Z,8.54
2022-11-27T11:12:15.173Z,8.66
2022-11-27T11:14:50.823Z,8.63
2022-11-27T11:17:18.454Z,8.54
2022-11-27T11:19:48.086Z,8.50
2022-11-27T11:22:16.420Z,8.47
2022-11-27T11:24:48.294Z,8.56
2022-11-27T11:27:27.608Z,8.46
2022-11-27T11:29:59.901Z,8.50
2022-11-27T11:32:38.938Z,8.49
2022-11-27T11:35:23.059Z,8.43
2022-11-27T11:37:53.459Z,8.53
2022-11-27T11:40:21.886Z,8.44
2022-11-27T11:43:00.299Z,8.42
2022-11-27T11:45:32.628Z,8.59
2022-11-27T11:48:20.613Z,8.68
2022-11-27T11:50:53.966Z,8.74
2022-11-27T11:53:40.971Z,8.69
2022-11-27T11:56:33.644Z,8.72
2022-11-27T11:59:27.498Z,8.69
2022-11-27T12:02:25.061Z,8.89
2022-11-27T12:04:51.628Z,8.88
2022-11-27T12:07:54.339Z,8.90
2022-11-27T12:10:34.660Z,8.88
2022-11-27T12:13:37.510Z,8.87
2022-11-27T12:16:16.934Z,8.86
2022-11-27T12:19:01.509Z,8.81
2022-11-27T12:21:57.261Z,8.86
2022-11-27T12:24:48.733Z,8.79
2022-11-27T12:27:24.258Z,8.76
2022-11-27T12:30:20.558Z,8.74
2022-11-27T12:32:57.135Z,8.79
2022-11-27T12:35:43.199Z,8.81
2022-11-27T12:38:18.500Z,8.81
2022-11-27T12:40:48.042Z,8.96
2022-11-27T12:43:27.661Z,8.96
2022-11-27T12:45:54.415Z,8.93
2022-11-27T12:48:56.035Z,8.84
2022-11-27T12:51:33.826Z,8.92
2022-11-27T12:54:12.617Z,8.88
2022-11-27T12:56:44.701Z,8.88
2022-11-27T12:59:19.919Z,8.87
2022-11-27T13:01:54.255Z,8.86
2022-11-27T13:04:34.628Z,8.76
2022-11-27T13:07:12.419Z,8.64
2022-11-27T13:10:07.142Z,8.61
2022-11-27T13:12:40.148Z,8.60
2022-11-27T13:15:16.740Z,8.63
2022-11-27T13:17:45.526Z,8.67
2022-11-27T13:20:19.635Z,8.68
2022-11-27T13:22:48.302Z,8.65
2022-11-27T13:25:16.799Z,8.60
2022-11-27T13:27:46.752Z,8.57
2022-11-27T13:30:23.104Z,8.54
2022-11-27T13:32:57.211Z,8.66
2022-11-27T13:35:29.149Z,8.69
2022-11-27T13:37:57.621Z,8.60
2022-11-27T13:40:29.541Z,8.50
2022-11-27T13:42:59.691Z,8.52
2022-11-27T13:45:30.245Z,8.48
2022-11-27T13:47:58.842Z,8.48
2022-11-27T13:50:31.141Z,8.47
2022-11-27T13:53:06.307Z,8.48
2022-11-27T13:55:52.266Z,8.47
2022-11-27T13:58:35.993Z,8.55
2022-11-27T14:01:23.295Z,8.52
2022-11-27T14:03:50.438Z,8.48
2022-11-27T14:06:25.020Z,8.47
2022-11-27T14:09:01.141Z,8.55
2022-11-27T14:11:31.284Z,8.59
2022-11-27T14:13:59.042Z,8.48
2022-11-27T14:16:32.954Z,8.43
2022-11-27T14:19:06.704Z,8.32
2022-11-27T14:21:40.786Z,8.25
2022-11-27T14:24:27.866Z,8.18
2022-11-27T14:26:55.205Z,8.17
2022-11-27T14:29:23.881Z,8.12
2022-11-27T14:31:59.064Z,8.17
2022-11-27T14:34:33.349Z,8.09
2022-11-27T14:37:00.929Z,8.10
2022-11-27T14:39:33.632Z,8.05
2022-11-27T14:42:05.412Z,8.02
2022-11-27T14:44:32.278Z,8.18
2022-11-27T14:47:07.261Z,8.15
2022-11-27T14:49:34.085Z,8.10
2022-11-27T14:52:05.712Z,8.04
2022-11-27T14:54:35.452Z,8.07
2022-11-27T14:57:02.547Z,8.08
2022-11-27T14:59:29.341Z,8.09
2022-11-27T15:02:03.619Z,7.96
2022-11-27T15:04:35.806Z,7.89
2022-11-27T15:07:06.514Z,7.92
2022-11-27T15:09:35.724Z,7.96
2022-11-27T15:12:17.510Z,7.99
2022-11-27T15:14:57.291Z,8.02
2022-11-27T15:17:36.631Z,7.90
2022-11-27T15:20:15.481Z,7.82
2022-11-27T15:22:54.218Z,7.76
2022-11-27T15:25:38.117Z,7.71
2022-11-27T15:28:39.587Z,7.68
2022-11-27T15:31:32.906Z,7.67
2022-11-27T15:34:14.663Z,7.68
2022-11-27T15:36:44.071Z,7.66
2022-11-27T15:39:16.308Z,7.65
2022-11-27T15:41:51.865Z,7.67
2022-11-27T15:44:18.435Z,7.65
2022-11-27T15:46:45.384Z,7.64
2022-11-27T15:49:14.397Z,7.71
2022-11-27T15:51:42.072Z,7.73
2022-11-27T15:54:08.969Z,7.73
2022-11-27T15:56:39.852Z,7.71
2022-11-27T15:59:06.776Z,7.74
2022-11-27T16:01:33.284Z,7.80
2022-11-27T16:03:59.895Z,7.84
2022-11-27T16:06:26.407Z,7.84
2022-11-27T16:08:57.007Z,7.89
2022-11-27T16:11:29.067Z,7.94
2022-11-27T16:13:55.512Z,7.91
2022-11-27T16:16:25.358Z,7.83
2022-11-27T16:18:57.893Z,7.84
2022-11-27T16:21:29.274Z,7.80
2022-11-27T16:23:57.632Z,7.90
2022-11-27T16:26:24.180Z,7.91
2022-11-27T16:28:50.623Z,7.97
2022-11-27T16:31:23.355Z,7.93
2022-11-27T16:33:52.987Z,8.04
2022-11-27T16:36:20.601Z,7.96
2022-11-27T16:38:49.341Z,7.97
2022-11-27T16:41:18.299Z,8.08
2022-11-27T16:43:46.369Z,8.06
2022-11-27T16:46:20.718Z,8.03
2022-11-27T16:48:48.879Z,8.06
2022-11-27T16:51:21.724Z,8.01
2022-11-27T16:53:51.249Z,7.94
2022-11-27T16:56:23.945Z,7.81
2022-11-27T16:58:53.004Z,7.74
2022-11-27T17:01:24.648Z,7.73
2022-11-27T17:03:55.005Z,7.78
2022-11-27T17:06:26.094Z,7.85
2022-11-27T17:08:56.650Z,7.91
2022-11-27T17:11:26.214Z,7.93
2022-11-27T17:13:55.930Z,7.92
2022-11-27T17:16:23.029Z,7.95
2022-11-27T17:18:49.526Z,7.98
2022-11-27T17:21:18.896Z,7.99
2022-11-27T17:23:46.936Z,8.05
2022-11-27T17:26:22.958Z,8.20
2022-11-27T17:28:49.616Z,8.25
2022-11-27T17:31:19.162Z,8.26
2022-11-27T17:33:46.737Z,8.30
2022-11-27T17:36:13.754Z,8.40
2022-11-27T17:38:40.681Z,8.37
2022-11-27T17:41:13.176Z,8.41
2022-11-27T17:43:40.917Z,8.33
2022-11-27T17:46:13.896Z,8.28
2022-11-27T17:48:40.507Z,8.23
2022-11-27T17:51:07.198Z,8.17
2022-11-27T17:53:34.520Z,8.14
2022-11-27T17:56:11.718Z,8.11
2022-11-27T17:58:41.286Z,8.04
2022-11-27T18:01:15.057Z,7.99
2022-11-27T18:03:42.643Z,7.89
2022-11-27T18:06:09.608Z,7.88
2022-11-27T18:08:39.815Z,7.97
2022-11-27T18:11:17.976Z,7.98
2022-11-27T18:13:44.998Z,7.95
2022-11-27T18:16:20.968Z,7.96
2022-11-27T18:18:48.815Z,8.01
2022-11-27T18:21:18.757Z,8.05
2022-11-27T18:24:20.572Z,8.14
2022-11-27T18:30:12.875Z,8.10
2022-11-27T18:32:39.890Z,8.18
2022-11-27T18:35:07.311Z,8.36
2022-11-27T18:37:38.460Z,8.29
2022-11-27T18:40:09.261Z,8.24
2022-11-27T18:42:38.640Z,8.19
2022-11-27T18:45:05.762Z,8.18
2022-11-27T18:47:33.512Z,8.13
2022-11-27T18:50:03.085Z,8.12
2022-11-27T18:52:29.637Z,8.34
2022-11-27T18:54:56.311Z,8.28
2022-11-27T18:57:22.811Z,8.17
2022-11-27T18:59:49.436Z,8.25
2022-11-27T19:02:15.925Z,8.21
2022-11-27T19:04:46.427Z,8.14
2022-11-27T19:07:13.053Z,8.23
2022-11-27T19:09:40.060Z,8.21
2022-11-27T19:12:06.883Z,8.47
2022-11-27T19:14:33.526Z,8.53
2022-11-27T19:17:00.215Z,8.39
2022-11-27T19:22:16.938Z,8.12
2022-11-27T19:24:43.472Z,8.02
2022-11-27T19:27:10.006Z,7.94
2022-11-27T19:29:36.504Z,7.98
2022-11-27T19:32:05.783Z,8.04
2022-11-27T19:34:32.353Z,8.01
2022-11-27T19:36:58.937Z,8.06
2022-11-27T19:39:26.918Z,7.97
2022-11-27T19:41:53.392Z,7.90
2022-11-27T19:44:22.733Z,7.91
2022-11-27T19:46:52.272Z,7.85
2022-11-27T19:49:19.211Z,7.78
2022-11-27T19:51:46.134Z,7.77
2022-11-27T19:54:14.062Z,7.72
2022-11-27T19:56:42.410Z,7.72
2022-11-27T19:59:10.294Z,7.69
2022-11-27T20:01:38.092Z,7.68
2022-11-27T20:04:05.558Z,7.67
2022-11-27T20:06:32.173Z,7.77
2022-11-27T20:09:01.569Z,7.69
2022-11-27T20:11:34.158Z,7.66
2022-11-27T20:14:04.773Z,7.65
2022-11-27T20:16:32.618Z,7.71
2022-11-27T20:18:59.411Z,7.77
2022-11-27T20:21:26.171Z,7.75
2022-11-27T20:23:53.510Z,7.75
2022-11-27T20:26:30.720Z,7.73
2022-11-27T20:28:58.137Z,7.73
2022-11-27T20:31:28.598Z,7.66
2022-11-27T20:33:58.262Z,7.60
2022-11-27T20:36:25.375Z,7.60
2022-11-27T20:38:52.884Z,7.60
2022-11-27T20:41:20.669Z,7.60
2022-11-27T20:43:47.740Z,7.66
2022-11-27T20:46:16.027Z,7.78
2022-11-27T20:48:45.911Z,7.86
2022-11-27T20:51:15.321Z,7.82
2022-11-27T20:53:44.075Z,7.95
2022-11-27T20:56:11.908Z,7.99
2022-11-27T20:58:40.529Z,8.03
2022-11-27T21:01:23.990Z,8.01
2022-11-27T21:03:52.373Z,7.93
2022-11-27T21:06:21.223Z,7.95
2022-11-27T21:08:48.087Z,7.85
2022-11-27T21:11:25.087Z,7.95
2022-11-27T21:14:01.377Z,7.96
2022-11-27T21:16:30.997Z,7.88
2022-11-27T21:18:59.715Z,7.75
2022-11-27T21:21:26.738Z,7.64
2022-11-27T21:23:54.289Z,7.57
2022-11-27T21:26:24.354Z,7.57
2022-11-27T21:28:51.561Z,7.50
2022-11-27T21:31:20.804Z,7.58
2022-11-27T21:34:22.361Z,7.51
2022-11-27T21:36:52.393Z,7.60
2022-11-27T21:39:22.558Z,7.58
2022-11-27T21:41:51.859Z,7.55
2022-11-27T21:44:19.207Z,7.53
2022-11-27T21:46:46.593Z,7.55
2022-11-27T21:49:18.365Z,7.46
2022-11-27T21:51:45.198Z,7.50
2022-11-27T21:54:14.992Z,7.42
2022-11-27T21:56:44.687Z,7.33
2022-11-27T21:59:13.430Z,7.11
2022-11-27T22:01:42.153Z,6.97
2022-11-27T22:04:08.723Z,6.92
2022-11-27T22:06:38.378Z,6.84
2022-11-27T22:09:11.858Z,6.70
2022-11-27T22:11:41.355Z,6.65
2022-11-27T22:14:11.068Z,6.62
2022-11-27T22:16:44.332Z,6.61
2022-11-27T22:19:11.831Z,6.54
2022-11-27T22:21:38.412Z,6.51
2022-11-27T22:24:07.157Z,6.59
2022-11-27T22:26:33.695Z,6.61
2022-11-27T22:29:00.242Z,6.49
2022-11-27T22:31:29.918Z,6.37
2022-11-27T22:33:57.828Z,6.32
2022-11-27T22:36:32.069Z,6.28
2022-11-27T22:39:00.716Z,6.27
2022-11-27T22:41:29.015Z,6.29
2022-11-27T22:43:56.049Z,6.31
2022-11-27T22:46:35.455Z,6.18
2022-11-27T22:49:05.149Z,6.24
2022-11-27T22:51:34.311Z,6.28
2022-11-27T22:54:05.685Z,6.21
2022-11-27T22:56:36.209Z,6.13
2022-11-27T22:59:31.724Z,6.12
2022-11-27T23:01:59.152Z,6.14
2022-11-27T23:04:28.603Z,6.15
2022-11-27T23:06:55.160Z,6.13
2022-11-27T23:09:21.653Z,6.03
2022-11-27T23:11:48.622Z,6.02
2022-11-27T23:14:15.452Z,6.00
2022-11-27T23:16:45.320Z,6.05
2022-11-27T23:19:12.319Z,6.12
2022-11-27T23:21:39.209Z,6.15
2022-11-27T23:24:10.853Z,6.12
2022-11-27T23:26:37.471Z,6.07
2022-11-27T23:29:04.350Z,6.08
2022-11-27T23:31:35.086Z,6.08
2022-11-27T23:34:05.220Z,6.11
2022-11-27T23:36:32.789Z,6.03
2022-11-27T23:39:04.480Z,6.07
2022-11-27T23:41:34.423Z,6.09
2022-11-27T23:44:02.018Z,6.11
2022-11-27T23:46:30.233Z,6.13
2022-11-27T23:48:59.644Z,6.17
2022-11-27T23:51:31.763Z,6.17
2022-11-27T23:53:59.206Z,6.19
2022-11-27T23:56:31.444Z,6.24
2022-11-27T23:58:58.989Z,6.14
